createdAt,value
2018-08-20T00:01:08.000Z,100.00
2018-08-20T00:04:12.412Z,100.00
2018-08-20T00:07:16.822Z,100.00
2018-08-20T00:10:21.165Z,100.00
2018-08-20T00:13:26.227Z,100.00
2018-08-20T00:16:30.596Z,100.00
2018-08-20T00:19:34.957Z,100.00
2018-08-20T00:22:39.289Z,100.00
2018-08-20T00:25:43.717Z,100.00
2018-08-20T00:28:48.081Z,100.00
2018-08-20T00:31:52.756Z,100.00
2018-08-20T00:34:57.118Z,100.00
2018-08-20T00:38:01.448Z,100.00
2018-08-20T00:41:05.757Z,100.00
2018-08-20T00:44:12.897Z,100.00
2018-08-20T00:47:17.301Z,100.00
2018-08-20T00:50:21.700Z,100.00
2018-08-20T00:53:26.033Z,100.00
2018-08-20T00:56:30.461Z,100.00
2018-08-20T00:59:34.813Z,100.00
2018-08-20T01:02:39.197Z,100.00
2018-08-20T01:05:43.668Z,100.00
2018-08-20T01:08:48.035Z,100.00
2018-08-20T01:11:52.465Z,100.00
2018-08-20T01:14:57.328Z,100.00
2018-08-20T01:18:01.763Z,100.00
2018-08-20T01:21:06.159Z,100.00
2018-08-20T01:24:10.538Z,100.00
2018-08-20T01:27:22.841Z,100.00
2018-08-20T01:30:27.171Z,100.00
2018-08-20T01:33:31.522Z,100.00
2018-08-20T01:36:35.889Z,100.00
2018-08-20T01:39:40.164Z,100.00
2018-08-20T01:42:44.569Z,100.00
2018-08-20T01:45:49.004Z,100.00
2018-08-20T01:48:54.013Z,100.00
2018-08-20T01:51:58.549Z,100.00
2018-08-20T01:55:02.954Z,100.00
2018-08-20T01:58:07.340Z,100.00
2018-08-20T02:01:11.660Z,100.00
2018-08-20T02:04:16.120Z,100.00
2018-08-20T02:07:20.718Z,100.00
2018-08-20T02:10:25.139Z,100.00
2018-08-20T02:13:29.459Z,100.00
2018-08-20T02:16:33.775Z,100.00
2018-08-20T02:19:38.132Z,100.00
2018-08-20T02:22:42.676Z,100.00
2018-08-20T02:25:47.160Z,100.00
2018-08-20T02:28:51.408Z,100.00
2018-08-20T02:31:55.738Z,100.00
2018-08-20T02:35:00.193Z,100.00
2018-08-20T02:38:04.721Z,100.00
2018-08-20T02:41:09.088Z,100.00
2018-08-20T02:44:13.631Z,100.00
2018-08-20T02:47:17.984Z,100.00
2018-08-20T02:50:22.438Z,100.00
2018-08-20T02:53:26.750Z,100.00
2018-08-20T02:56:31.164Z,100.00
2018-08-20T02:59:35.468Z,100.00
2018-08-20T03:02:39.918Z,100.00
2018-08-20T03:05:44.233Z,100.00
2018-08-20T03:08:48.517Z,100.00
2018-08-20T03:11:52.855Z,100.00
2018-08-20T03:14:57.220Z,100.00
2018-08-20T03:18:01.651Z,100.00
2018-08-20T03:21:06.051Z,100.00
2018-08-20T03:24:10.413Z,100.00
2018-08-20T03:27:14.844Z,100.00
2018-08-20T03:30:19.217Z,100.00
2018-08-20T03:33:23.607Z,100.00
2018-08-20T03:36:27.959Z,100.00
2018-08-20T03:39:32.195Z,100.00
2018-08-20T03:42:36.624Z,100.00
2018-08-20T03:45:41.065Z,100.00
2018-08-20T03:48:45.409Z,100.00
2018-08-20T03:51:49.715Z,100.00
2018-08-20T03:54:54.118Z,100.00
2018-08-20T03:57:58.479Z,100.00
2018-08-20T04:01:03.110Z,100.00
2018-08-20T04:04:07.442Z,100.00
2018-08-20T04:07:11.979Z,100.00
2018-08-20T04:10:16.306Z,100.00
2018-08-20T04:13:20.718Z,100.00
2018-08-20T04:16:25.094Z,100.00
2018-08-20T04:19:29.990Z,100.00
2018-08-20T04:22:34.513Z,100.00
2018-08-20T04:25:38.773Z,100.00
2018-08-20T04:28:43.055Z,100.00
2018-08-20T04:31:47.483Z,100.00
2018-08-20T04:34:51.829Z,100.00
2018-08-20T04:37:56.194Z,100.00
2018-08-20T04:41:00.571Z,100.00
2018-08-20T04:44:04.951Z,100.00
2018-08-20T04:47:09.243Z,100.00
2018-08-20T04:50:13.808Z,100.00
2018-08-20T04:53:17.951Z,100.00
2018-08-20T04:56:22.288Z,100.00
2018-08-20T04:59:26.579Z,100.00
2018-08-20T05:02:30.912Z,100.00
2018-08-20T05:05:35.292Z,100.00
2018-08-20T05:08:39.564Z,100.00
2018-08-20T05:11:43.909Z,100.00
2018-08-20T05:14:48.239Z,100.00
2018-08-20T05:17:52.629Z,100.00
2018-08-20T05:20:57.249Z,100.00
2018-08-20T05:24:01.540Z,100.00
2018-08-20T05:27:06.547Z,100.00
2018-08-20T05:30:10.913Z,100.00
2018-08-20T05:33:15.246Z,100.00
2018-08-20T05:36:19.693Z,100.00
2018-08-20T05:39:23.967Z,100.00
2018-08-20T05:42:28.281Z,100.00
2018-08-20T05:45:32.602Z,100.00
2018-08-20T05:48:37.025Z,100.00
2018-08-20T05:51:41.537Z,100.00
2018-08-20T05:54:45.820Z,100.00
2018-08-20T05:57:50.106Z,100.00
2018-08-20T06:00:54.436Z,100.00
2018-08-20T06:03:59.098Z,100.00
2018-08-20T06:07:03.461Z,100.00
2018-08-20T06:10:08.867Z,100.00
2018-08-20T06:13:13.243Z,100.00
2018-08-20T06:16:17.683Z,100.00
2018-08-20T06:19:22.087Z,100.00
2018-08-20T06:22:26.460Z,100.00
2018-08-20T06:25:31.129Z,100.00
2018-08-20T06:28:35.483Z,100.00
2018-08-20T06:31:39.762Z,100.00
2018-08-20T06:34:44.085Z,100.00
2018-08-20T06:37:48.411Z,100.00
2018-08-20T06:40:52.713Z,100.00
2018-08-20T06:43:57.029Z,100.00
2018-08-20T06:47:01.324Z,100.00
2018-08-20T06:50:06.701Z,100.00
2018-08-20T06:53:11.024Z,100.00
2018-08-20T06:56:15.333Z,100.00
2018-08-20T06:59:19.741Z,100.00
2018-08-20T07:02:24.185Z,100.00
2018-08-20T07:05:28.796Z,100.00
2018-08-20T07:08:33.182Z,100.00
2018-08-20T07:11:37.565Z,100.00
2018-08-20T07:14:42.009Z,100.00
2018-08-20T07:17:46.396Z,100.00
2018-08-20T07:20:50.880Z,100.00
2018-08-20T07:23:55.242Z,100.00
2018-08-20T07:26:59.525Z,99.80
2018-08-20T07:30:03.889Z,100.00
2018-08-20T07:33:08.308Z,100.00
2018-08-20T07:36:12.555Z,100.00
2018-08-20T07:39:16.972Z,99.40
2018-08-20T07:42:21.433Z,97.37
2018-08-20T07:45:25.681Z,94.83
2018-08-20T07:48:30.811Z,94.69
2018-08-20T07:51:35.802Z,95.30
2018-08-20T07:54:41.741Z,95.97
2018-08-20T07:57:46.462Z,94.50
2018-08-20T08:00:50.965Z,95.87
2018-08-20T08:03:55.421Z,93.05
2018-08-20T08:06:59.825Z,93.91
2018-08-20T08:10:06.467Z,92.26
2018-08-20T08:13:11.049Z,92.65
2018-08-20T08:16:15.560Z,93.29
2018-08-20T08:19:20.191Z,93.09
2018-08-20T08:22:24.589Z,93.67
2018-08-20T08:25:29.368Z,94.06
2018-08-20T08:28:34.105Z,92.03
2018-08-20T08:31:38.459Z,91.35
2018-08-20T08:34:42.741Z,89.82
2018-08-20T08:37:47.212Z,89.09
2018-08-20T08:40:51.905Z,86.98
2018-08-20T08:43:56.263Z,85.62
2018-08-20T08:47:00.908Z,85.98
2018-08-20T08:50:05.929Z,84.53
2018-08-20T08:53:10.332Z,83.58
2018-08-20T08:56:14.670Z,84.17
2018-08-20T08:59:19.303Z,83.44
2018-08-20T09:02:23.713Z,81.75
2018-08-20T09:05:28.165Z,83.25
2018-08-20T09:08:33.129Z,83.62
2018-08-20T09:11:37.408Z,83.62
2018-08-20T09:14:41.929Z,84.24
2018-08-20T09:17:47.342Z,84.56
2018-08-20T09:20:51.760Z,84.77
2018-08-20T09:23:56.449Z,83.23
2018-08-20T09:27:00.789Z,82.60
2018-08-20T09:30:08.287Z,82.30
2018-08-20T09:33:12.761Z,80.41
2018-08-20T09:36:17.124Z,79.95
2018-08-20T09:39:21.535Z,79.99
2018-08-20T09:42:26.100Z,81.05
2018-08-20T09:45:30.542Z,81.31
2018-08-20T09:48:34.815Z,81.68
2018-08-20T09:51:39.127Z,80.50
2018-08-20T09:54:43.685Z,78.79
2018-08-20T09:57:48.106Z,78.95
2018-08-20T10:00:52.704Z,77.82
2018-08-20T10:03:57.054Z,77.12
2018-08-20T10:07:01.525Z,74.88
2018-08-20T10:10:06.941Z,72.65
2018-08-20T10:13:11.401Z,73.63
2018-08-20T10:16:15.804Z,72.50
2018-08-20T10:19:20.260Z,72.06
2018-08-20T10:22:24.520Z,71.19
2018-08-20T10:25:29.216Z,70.67
2018-08-20T10:28:33.521Z,71.52
2018-08-20T10:31:38.313Z,70.71
2018-08-20T10:34:43.077Z,70.84
2018-08-20T10:37:47.934Z,69.22
2018-08-20T10:40:52.890Z,69.89
2018-08-20T10:43:57.862Z,68.04
2018-08-20T10:47:03.000Z,68.92
2018-08-20T10:50:08.229Z,69.62
2018-08-20T10:53:12.562Z,69.23
2018-08-20T10:56:16.942Z,69.36
2018-08-20T10:59:21.416Z,65.30
2018-08-20T11:02:25.717Z,65.57
2018-08-20T11:05:29.998Z,65.98
2018-08-20T11:08:34.515Z,66.11
2018-08-20T11:11:38.997Z,64.34
2018-08-20T11:14:43.331Z,65.00
2018-08-20T11:17:47.657Z,63.48
2018-08-20T11:20:51.961Z,63.84
2018-08-20T11:23:56.283Z,63.92
2018-08-20T11:27:00.842Z,63.58
2018-08-20T11:30:06.550Z,64.27
2018-08-20T11:33:11.186Z,62.85
2018-08-20T11:36:15.739Z,64.26
2018-08-20T11:39:20.367Z,65.04
2018-08-20T11:42:24.692Z,64.87
2018-08-20T11:45:29.199Z,64.81
2018-08-20T11:48:33.504Z,64.01
2018-08-20T11:51:37.891Z,61.44
2018-08-20T11:54:42.240Z,61.53
2018-08-20T11:57:46.561Z,62.08
2018-08-20T12:00:50.882Z,62.41
2018-08-20T12:03:56.077Z,63.04
2018-08-20T12:07:00.516Z,61.79
2018-08-20T12:10:05.261Z,61.11
2018-08-20T12:13:09.510Z,59.16
2018-08-20T12:16:13.782Z,60.18
2018-08-20T12:19:18.127Z,60.37
2018-08-20T12:22:22.484Z,62.09
2018-08-20T12:25:26.900Z,61.08
2018-08-20T12:28:31.193Z,60.30
2018-08-20T12:31:35.515Z,63.28
2018-08-20T12:34:39.863Z,63.59
2018-08-20T12:37:44.159Z,62.25
2018-08-20T12:40:48.457Z,62.16
2018-08-20T12:43:52.729Z,59.97
2018-08-20T12:46:57.120Z,60.31
2018-08-20T12:50:01.416Z,62.83
2018-08-20T12:53:05.784Z,60.94
2018-08-20T12:56:10.857Z,63.14
2018-08-20T12:59:15.176Z,63.67
2018-08-20T13:02:19.555Z,62.62
2018-08-20T13:05:23.934Z,63.58
2018-08-20T13:08:28.258Z,64.38
2018-08-20T13:11:32.604Z,63.38
2018-08-20T13:14:36.921Z,62.56
2018-08-20T13:17:41.321Z,62.55
2018-08-20T13:20:45.888Z,63.60
2018-08-20T13:23:50.172Z,62.39
2018-08-20T13:26:54.477Z,63.43
2018-08-20T13:29:58.804Z,61.38
2018-08-20T13:33:03.091Z,61.26
2018-08-20T13:36:07.445Z,60.81
2018-08-20T13:39:11.755Z,60.21
2018-08-20T13:42:16.085Z,60.78
2018-08-20T13:45:20.386Z,61.14
2018-08-20T13:48:24.728Z,62.85
2018-08-20T13:51:29.010Z,63.73
2018-08-20T13:54:33.277Z,61.85
2018-08-20T13:57:41.739Z,61.68
2018-08-20T14:00:46.087Z,61.05
2018-08-20T14:03:50.432Z,61.45
2018-08-20T14:06:54.751Z,60.24
2018-08-20T14:09:59.086Z,59.70
2018-08-20T14:13:03.384Z,59.61
2018-08-20T14:16:07.811Z,60.75
2018-08-20T14:19:12.224Z,60.06
2018-08-20T14:22:16.517Z,60.44
2018-08-20T14:25:20.873Z,60.84
2018-08-20T14:28:25.186Z,58.28
2018-08-20T14:31:29.473Z,59.35
2018-08-20T14:34:33.814Z,58.96
2018-08-20T14:37:38.194Z,58.81
2018-08-20T14:40:42.557Z,59.45
2018-08-20T14:43:46.876Z,58.86
2018-08-20T14:46:51.160Z,60.86
2018-08-20T14:49:55.558Z,61.35
2018-08-20T14:52:59.932Z,60.33
2018-08-20T14:56:04.779Z,62.31
2018-08-20T14:59:09.232Z,63.60
2018-08-20T15:02:13.586Z,63.74
2018-08-20T15:05:17.935Z,64.26
2018-08-20T15:08:22.244Z,62.07
2018-08-20T15:11:26.543Z,63.48
2018-08-20T15:14:30.878Z,63.69
2018-08-20T15:17:35.410Z,63.50
2018-08-20T15:20:39.757Z,63.60
2018-08-20T15:23:44.200Z,64.00
2018-08-20T15:26:49.324Z,64.80
2018-08-20T15:29:53.595Z,63.84
2018-08-20T15:32:57.906Z,64.36
2018-08-20T15:36:02.243Z,61.71
2018-08-20T15:39:07.861Z,59.55
2018-08-20T15:42:12.375Z,60.54
2018-08-20T15:45:17.499Z,61.18
2018-08-20T15:48:21.975Z,62.91
2018-08-20T15:51:26.376Z,64.07
2018-08-20T15:54:30.690Z,64.87
2018-08-20T15:57:35.207Z,65.72
2018-08-20T16:00:39.813Z,66.21
2018-08-20T16:03:44.795Z,67.05
2018-08-20T16:06:49.101Z,65.07
2018-08-20T16:09:53.763Z,65.62
2018-08-20T16:12:59.139Z,66.87
2018-08-20T16:16:04.724Z,65.90
2018-08-20T16:19:09.933Z,65.87
2018-08-20T16:22:14.381Z,64.94
2018-08-20T16:25:19.644Z,63.45
2018-08-20T16:28:24.278Z,62.52
2018-08-20T16:31:29.169Z,63.49
2018-08-20T16:34:33.620Z,64.41
2018-08-20T16:37:38.036Z,63.32
2018-08-20T16:40:42.448Z,63.93
2018-08-20T16:43:46.742Z,64.17
2018-08-20T16:46:51.211Z,62.79
2018-08-20T16:49:56.196Z,62.16
2018-08-20T16:53:00.908Z,62.37
2018-08-20T16:56:05.485Z,61.12
2018-08-20T16:59:09.879Z,60.75
2018-08-20T17:02:20.225Z,60.58
2018-08-20T17:05:27.659Z,59.24
2018-08-20T17:08:32.704Z,59.32
2018-08-20T17:11:37.280Z,61.02
2018-08-20T17:14:42.096Z,61.41
2018-08-20T17:17:46.741Z,61.89
2018-08-20T17:20:51.201Z,61.14
2018-08-20T17:23:55.673Z,63.19
2018-08-20T17:27:01.695Z,64.10
2018-08-20T17:30:08.647Z,65.08
2018-08-20T17:33:12.975Z,66.36
2018-08-20T17:36:17.350Z,67.60
2018-08-20T17:39:21.714Z,68.76
2018-08-20T17:42:27.978Z,69.13
2018-08-20T17:45:32.246Z,70.52
2018-08-20T17:48:38.117Z,71.21
2018-08-20T17:51:42.546Z,71.69
2018-08-20T17:54:47.143Z,72.18
2018-08-20T17:57:51.493Z,72.58
2018-08-20T18:00:55.781Z,70.35
2018-08-20T18:04:00.661Z,70.88
2018-08-20T18:07:05.008Z,71.17
2018-08-20T18:10:09.513Z,70.64
2018-08-20T18:13:24.582Z,71.46
2018-08-20T18:16:28.988Z,71.59
2018-08-20T18:19:33.300Z,72.02
2018-08-20T18:22:37.720Z,70.57
2018-08-20T18:25:42.173Z,71.56
2018-08-20T18:28:54.394Z,73.67
2018-08-20T18:32:01.478Z,74.20
2018-08-20T18:35:06.092Z,74.30
2018-08-20T18:38:10.527Z,73.66
2018-08-20T18:41:14.917Z,74.83
2018-08-20T18:44:21.013Z,75.08
2018-08-20T18:47:25.542Z,74.88
2018-08-20T18:50:30.030Z,74.89
2018-08-20T18:53:34.907Z,75.96
2018-08-20T18:56:39.238Z,75.26
2018-08-20T18:59:43.831Z,76.58
2018-08-20T19:02:54.853Z,75.38
2018-08-20T19:05:59.410Z,74.71
2018-08-20T19:09:03.856Z,75.38
2018-08-20T19:12:08.902Z,75.34
2018-08-20T19:15:27.297Z,74.95
2018-08-20T19:18:37.392Z,75.57
2018-08-20T19:21:42.427Z,76.03
2018-08-20T19:24:46.835Z,76.48
2018-08-20T19:27:51.478Z,76.99
2018-08-20T19:30:56.891Z,76.91
2018-08-20T19:34:01.279Z,77.44
2018-08-20T19:37:06.076Z,77.34
2018-08-20T19:40:10.714Z,77.94
2018-08-20T19:43:15.315Z,78.62
2018-08-20T19:46:30.737Z,79.54
2018-08-20T19:49:35.211Z,80.23
2018-08-20T19:52:39.829Z,79.51
2018-08-20T19:55:44.130Z,80.03
2018-08-20T19:58:48.598Z,81.29
2018-08-20T20:01:53.708Z,81.33
2018-08-20T20:05:03.354Z,81.85
2018-08-20T20:08:08.168Z,82.47
2018-08-20T20:11:20.581Z,82.12
2018-08-20T20:14:28.474Z,82.21
2018-08-20T20:17:32.879Z,83.45
2018-08-20T20:20:37.223Z,83.73
2018-08-20T20:23:41.551Z,83.94
2018-08-20T20:26:45.920Z,83.61
2018-08-20T20:29:50.288Z,83.56
2018-08-20T20:32:54.689Z,84.55
2018-08-20T20:35:59.114Z,84.61
2018-08-20T20:39:03.527Z,85.48
2018-08-20T20:42:08.114Z,85.17
2018-08-20T20:45:12.511Z,86.07
2018-08-20T20:48:17.527Z,85.86
2018-08-20T21:04:26.421Z,86.10
2018-08-20T21:07:35.142Z,87.20
2018-08-20T21:10:44.697Z,87.53
2018-08-20T21:13:49.456Z,87.85
2018-08-20T21:16:53.936Z,88.30
2018-08-20T21:19:58.310Z,88.74
2018-08-20T21:23:02.849Z,88.58
2018-08-20T21:26:07.949Z,88.67
2018-08-20T21:29:12.471Z,89.26
2018-08-20T21:32:16.860Z,89.48
2018-08-20T21:35:23.050Z,89.54
2018-08-20T21:38:27.948Z,90.02
2018-08-20T21:41:32.351Z,90.10
2018-08-20T21:44:36.798Z,91.06
2018-08-20T21:47:41.119Z,91.27
2018-08-20T21:50:45.431Z,91.92
2018-08-20T21:53:49.749Z,92.53
2018-08-20T21:56:54.291Z,93.09
2018-08-20T22:00:11.172Z,93.38
2018-08-20T22:03:16.010Z,93.96
2018-08-20T22:06:20.404Z,94.15
2018-08-20T22:09:25.012Z,94.35
2018-08-20T22:12:29.344Z,94.85
2018-08-20T22:15:33.665Z,95.09
2018-08-20T22:18:41.384Z,95.48
2018-08-20T22:21:45.817Z,95.51
2018-08-20T22:24:54.388Z,96.12
2018-08-20T22:27:58.726Z,96.92
2018-08-20T22:31:03.109Z,97.04
2018-08-20T22:34:07.514Z,97.43
2018-08-20T22:37:11.877Z,98.43
2018-08-20T22:40:18.032Z,98.69
2018-08-20T22:43:22.429Z,98.86
2018-08-20T22:46:27.209Z,99.49
2018-08-20T22:49:31.660Z,100.00
2018-08-20T22:52:36.102Z,100.00
2018-08-20T22:56:00.209Z,100.00
2018-08-20T22:59:09.764Z,100.00
2018-08-20T23:02:14.130Z,100.00
2018-08-20T23:05:18.518Z,100.00
2018-08-20T23:08:22.952Z,100.00
2018-08-20T23:11:42.616Z,100.00
2018-08-20T23:14:47.049Z,100.00
2018-08-20T23:17:51.423Z,100.00
2018-08-20T23:20:55.852Z,100.00
2018-08-20T23:24:00.930Z,100.00
2018-08-20T23:27:05.298Z,100.00
2018-08-20T23:30:11.181Z,100.00
2018-08-20T23:33:15.561Z,100.00
2018-08-20T23:36:19.889Z,100.00
2018-08-20T23:39:24.338Z,100.00
2018-08-20T23:42:28.738Z,100.00
2018-08-20T23:45:33.161Z,100.00
2018-08-20T23:48:37.625Z,100.00
2018-08-20T23:51:42.096Z,100.00
2018-08-20T23:54:46.481Z,100.00
2018-08-20T23:57:50.973Z,100.00
